createdAt,value
2018-05-12T00:00:04.464Z,4.83
2018-05-12T00:02:32.047Z,5.30
2018-05-12T00:04:59.799Z,5.47
2018-05-12T00:07:27.371Z,4.77
2018-05-12T00:09:54.947Z,5.10
2018-05-12T00:12:22.700Z,5.80
2018-05-12T00:14:50.296Z,5.33
2018-05-12T00:17:17.873Z,5.17
2018-05-12T00:19:45.495Z,5.33
2018-05-12T00:22:13.063Z,4.77
2018-05-12T00:24:40.631Z,5.70
2018-05-12T00:27:08.264Z,5.40
2018-05-12T00:29:35.895Z,5.40
2018-05-12T00:32:03.485Z,8.97
2018-05-12T00:34:31.211Z,8.70
2018-05-12T00:36:58.974Z,10.50
2018-05-12T00:39:26.543Z,9.97
2018-05-12T00:41:54.188Z,10.50
2018-05-12T00:44:21.780Z,11.27
2018-05-12T00:46:49.383Z,11.53
2018-05-12T00:49:17.022Z,10.23
2018-05-12T00:51:44.635Z,10.40
2018-05-12T00:54:12.218Z,10.50
2018-05-12T00:56:39.979Z,9.57
2018-05-12T00:59:07.554Z,10.27
2018-05-12T01:01:35.175Z,9.53
2018-05-12T01:04:02.832Z,9.07
2018-05-12T01:06:30.421Z,9.50
2018-05-12T01:08:57.995Z,9.37
2018-05-12T01:11:25.740Z,9.43
2018-05-12T01:13:53.360Z,9.27
2018-05-12T01:16:20.952Z,9.63
2018-05-12T01:18:48.593Z,8.53
2018-05-12T01:21:16.196Z,8.43
2018-05-12T01:23:43.765Z,9.17
2018-05-12T01:26:11.403Z,7.97
2018-05-12T01:28:39.435Z,7.90
2018-05-12T01:31:07.089Z,8.07
2018-05-12T01:33:36.854Z,8.00
2018-05-12T01:36:04.491Z,7.80
2018-05-12T01:38:32.085Z,7.30
2018-05-12T01:41:00.688Z,6.93
2018-05-12T01:43:28.872Z,7.40
2018-05-12T01:45:56.434Z,6.70
2018-05-12T01:48:24.162Z,7.40
2018-05-12T01:50:51.740Z,7.43
2018-05-12T01:53:19.308Z,7.23
2018-05-12T01:55:46.954Z,7.20
2018-05-12T01:58:14.552Z,6.90
2018-05-12T02:00:42.132Z,6.83
2018-05-12T02:03:09.883Z,7.47
2018-05-12T02:05:37.471Z,7.20
2018-05-12T02:08:05.056Z,7.57
2018-05-12T02:10:32.704Z,7.40
2018-05-12T02:13:00.288Z,7.07
2018-05-12T02:15:27.895Z,7.83
2018-05-12T02:17:55.631Z,7.63
2018-05-12T02:20:23.195Z,7.57
2018-05-12T02:22:50.763Z,7.73
2018-05-12T02:25:18.489Z,7.10
2018-05-12T02:27:46.093Z,7.47
2018-05-12T02:30:13.680Z,7.80
2018-05-12T02:32:41.313Z,7.33
2018-05-12T02:35:08.898Z,7.17
2018-05-12T02:37:36.526Z,7.63
2018-05-12T02:40:04.300Z,7.77
2018-05-12T02:42:31.899Z,6.93
2018-05-12T02:44:59.486Z,7.30
2018-05-12T02:47:27.146Z,7.17
2018-05-12T02:49:54.715Z,7.30
2018-05-12T02:52:22.296Z,7.50
2018-05-12T02:54:49.935Z,7.43
2018-05-12T02:57:17.512Z,7.43
2018-05-12T02:59:45.096Z,7.70
2018-05-12T03:02:12.733Z,7.50
2018-05-12T03:04:40.333Z,6.97
2018-05-12T03:07:07.925Z,7.33
2018-05-12T03:09:35.663Z,7.57
2018-05-12T03:12:03.267Z,7.63
2018-05-12T03:14:30.871Z,7.75
2018-05-12T03:16:58.611Z,8.10
2018-05-12T03:19:26.182Z,7.70
2018-05-12T03:21:53.786Z,7.40
2018-05-12T03:24:21.548Z,7.33
2018-05-12T03:26:49.149Z,7.00
2018-05-12T03:29:16.767Z,7.03
2018-05-12T03:31:44.413Z,6.87
2018-05-12T03:34:12.029Z,7.00
2018-05-12T03:36:39.605Z,7.30
2018-05-12T03:39:07.853Z,7.70
2018-05-12T03:41:35.438Z,7.07
2018-05-12T03:44:03.074Z,7.13
2018-05-12T03:46:30.698Z,7.57
2018-05-12T03:48:58.800Z,7.03
2018-05-12T03:51:26.384Z,6.87
2018-05-12T03:53:54.031Z,7.10
2018-05-12T03:56:21.613Z,6.70
2018-05-12T03:58:49.203Z,7.13
2018-05-12T04:01:16.991Z,7.33
2018-05-12T04:03:44.573Z,7.13
2018-05-12T04:06:26.211Z,6.70
2018-05-12T04:09:05.886Z,6.70
2018-05-12T04:11:45.366Z,6.93
2018-05-12T04:14:12.980Z,6.53
2018-05-12T04:16:40.586Z,7.00
2018-05-12T04:19:08.219Z,7.40
2018-05-12T04:21:35.833Z,6.70
2018-05-12T04:24:03.438Z,6.73
2018-05-12T04:26:31.114Z,7.17
2018-05-12T04:28:58.695Z,6.40
2018-05-12T04:31:26.290Z,7.30
2018-05-12T04:33:53.961Z,6.93
2018-05-12T04:36:21.568Z,6.70
2018-05-12T04:38:49.162Z,7.57
2018-05-12T04:41:16.814Z,7.03
2018-05-12T04:43:44.406Z,6.83
2018-05-12T04:46:11.996Z,7.43
2018-05-12T04:48:39.649Z,7.23
2018-05-12T04:51:07.270Z,7.30
2018-05-12T04:53:34.855Z,7.03
2018-05-12T04:56:02.483Z,7.83
2018-05-12T04:58:30.106Z,7.33
2018-05-12T05:00:57.670Z,7.70
2018-05-12T05:03:26.676Z,7.33
2018-05-12T05:05:54.267Z,7.33
2018-05-12T05:08:21.858Z,7.93
2018-05-12T05:10:49.484Z,8.97
2018-05-12T05:13:17.048Z,7.63
2018-05-12T05:15:44.656Z,8.83
2018-05-12T05:18:12.434Z,12.40
2018-05-12T05:20:39.998Z,9.37
2018-05-12T05:23:07.575Z,9.57
2018-05-12T05:25:35.242Z,9.73
2018-05-12T05:28:02.817Z,9.97
2018-05-12T05:30:30.429Z,10.60
2018-05-12T05:32:58.063Z,10.87
2018-05-12T05:35:25.648Z,10.53
2018-05-12T05:37:53.244Z,11.37
2018-05-12T05:40:20.994Z,10.43
2018-05-12T05:42:48.637Z,10.33
2018-05-12T05:45:16.257Z,10.30
2018-05-12T05:47:43.988Z,9.43
2018-05-12T05:50:11.591Z,9.90
2018-05-12T05:52:39.189Z,10.40
2018-05-12T05:55:06.798Z,10.60
2018-05-12T05:57:34.394Z,11.10
2018-05-12T06:00:02.011Z,12.30
2018-05-12T06:02:29.665Z,12.43
2018-05-12T06:04:57.274Z,11.73
2018-05-12T06:07:24.847Z,12.63
2018-05-12T06:09:52.556Z,10.80
2018-05-12T06:12:20.154Z,9.40
2018-05-12T06:14:47.731Z,8.43
2018-05-12T06:17:15.451Z,8.43
2018-05-12T06:19:43.053Z,7.80
2018-05-12T06:22:11.366Z,7.53
2018-05-12T06:24:39.036Z,6.97
2018-05-12T06:27:06.605Z,7.03
2018-05-12T06:29:34.196Z,6.27
2018-05-12T06:32:01.848Z,6.63
2018-05-12T06:34:29.434Z,7.00
2018-05-12T06:36:57.047Z,7.00
2018-05-12T06:39:24.726Z,6.83
2018-05-12T06:41:52.318Z,9.70
2018-05-12T06:44:19.909Z,6.30
2018-05-12T06:46:47.645Z,5.87
2018-05-12T06:49:15.252Z,6.40
2018-05-12T06:51:43.764Z,6.43
2018-05-12T06:54:11.392Z,6.83
2018-05-12T06:56:38.978Z,6.67
2018-05-12T06:59:06.593Z,7.50
2018-05-12T07:01:34.227Z,6.33
2018-05-12T07:04:01.815Z,6.73
2018-05-12T07:06:29.406Z,6.13
2018-05-12T07:08:57.047Z,6.17
2018-05-12T07:11:24.695Z,6.07
2018-05-12T07:13:52.276Z,6.80
2018-05-12T07:16:20.029Z,7.00
2018-05-12T07:18:47.665Z,6.77
2018-05-12T07:21:16.076Z,6.30
2018-05-12T07:23:43.774Z,6.00
2018-05-12T07:26:11.376Z,5.53
2018-05-12T07:28:38.992Z,6.03
2018-05-12T07:31:06.801Z,5.27
2018-05-12T07:33:34.404Z,6.13
2018-05-12T07:36:02.064Z,12.23
2018-05-12T07:38:30.231Z,6.63
2018-05-12T07:40:57.811Z,4.93
2018-05-12T07:43:25.457Z,4.83
2018-05-12T07:45:53.120Z,12.67
2018-05-12T07:48:20.779Z,13.70
2018-05-12T07:50:48.396Z,6.73
2018-05-12T07:53:16.097Z,14.53
2018-05-12T07:55:43.745Z,10.13
2018-05-12T07:58:11.377Z,5.83
2018-05-12T08:00:39.032Z,5.00
2018-05-12T08:03:06.612Z,4.83
2018-05-12T08:05:34.188Z,4.43
2018-05-12T08:08:01.976Z,5.33
2018-05-12T08:10:29.600Z,4.53
2018-05-12T08:12:57.177Z,4.30
2018-05-12T08:15:25.692Z,4.50
2018-05-12T08:17:53.328Z,4.17
2018-05-12T08:20:20.968Z,4.97
2018-05-12T08:22:48.692Z,6.93
2018-05-12T08:25:16.279Z,5.20
2018-05-12T08:27:43.957Z,4.63
2018-05-12T08:30:11.596Z,12.02
2018-05-12T08:32:39.179Z,7.60
2018-05-12T08:35:06.782Z,6.10
2018-05-12T08:37:34.550Z,4.57
2018-05-12T08:40:02.180Z,7.10
2018-05-12T08:42:29.757Z,5.10
2018-05-12T08:44:57.471Z,6.73
2018-05-12T08:47:25.079Z,6.63
2018-05-12T08:49:52.678Z,11.73
2018-05-12T08:52:20.379Z,6.83
2018-05-12T08:54:48.019Z,7.57
2018-05-12T08:57:15.652Z,3.80
2018-05-12T08:59:43.316Z,3.93
2018-05-12T09:02:10.940Z,6.43
2018-05-12T09:04:38.531Z,4.43
2018-05-12T09:07:06.205Z,5.60
2018-05-12T09:09:33.841Z,4.40
2018-05-12T09:12:01.483Z,5.07
2018-05-12T09:14:29.208Z,10.40
2018-05-12T09:16:56.792Z,6.60
2018-05-12T09:19:24.586Z,8.20
2018-05-12T09:21:52.920Z,5.53
2018-05-12T09:24:20.567Z,5.07
2018-05-12T09:26:48.151Z,4.00
2018-05-12T09:29:15.836Z,4.50
2018-05-12T09:31:43.420Z,3.90
2018-05-12T09:34:10.994Z,4.00
2018-05-12T09:36:38.628Z,3.90
2018-05-12T09:39:07.116Z,3.77
2018-05-12T09:41:34.777Z,4.77
2018-05-12T09:44:02.611Z,4.47
2018-05-12T09:46:30.176Z,5.00
2018-05-12T09:48:57.891Z,4.27
2018-05-12T09:51:25.532Z,4.30
2018-05-12T09:53:53.119Z,8.70
2018-05-12T09:56:20.764Z,4.53
2018-05-12T09:58:48.395Z,4.23
2018-05-12T10:01:15.982Z,7.03
2018-05-12T10:03:43.585Z,4.73
2018-05-12T10:06:11.317Z,3.90
2018-05-12T10:08:38.908Z,3.97
2018-05-12T10:11:06.503Z,4.50
2018-05-12T10:13:34.131Z,3.70
2018-05-12T10:16:01.773Z,3.30
2018-05-12T10:18:29.349Z,3.50
2018-05-12T10:20:56.980Z,3.57
2018-05-12T10:23:24.643Z,3.17
2018-05-12T10:25:52.477Z,4.20
2018-05-12T10:28:20.398Z,3.87
2018-05-12T10:30:48.253Z,3.87
2018-05-12T10:33:16.103Z,6.67
2018-05-12T10:35:43.975Z,3.90
2018-05-12T10:38:11.834Z,5.87
2018-05-12T10:40:39.664Z,4.07
2018-05-12T10:43:07.655Z,3.87
2018-05-12T10:45:35.515Z,2.87
2018-05-12T10:48:03.363Z,3.23
2018-05-12T10:50:34.296Z,7.50
2018-05-12T10:53:02.142Z,2.87
2018-05-12T10:55:29.719Z,3.07
2018-05-12T10:57:57.459Z,3.73
2018-05-12T11:00:25.084Z,3.50
2018-05-12T11:02:52.655Z,3.13
2018-05-12T11:05:20.369Z,2.93
2018-05-12T11:07:47.973Z,3.60
2018-05-12T11:10:15.559Z,3.27
2018-05-12T11:12:45.278Z,3.50
2018-05-12T11:15:12.856Z,3.00
2018-05-12T11:17:40.429Z,3.53
2018-05-12T11:20:08.126Z,3.00
2018-05-12T11:22:35.677Z,3.30
2018-05-12T11:25:03.318Z,3.57
2018-05-12T11:27:31.049Z,3.17
2018-05-12T11:29:58.627Z,3.37
2018-05-12T11:32:26.197Z,3.80
2018-05-12T11:34:53.859Z,3.60
2018-05-12T11:37:21.428Z,3.20
2018-05-12T11:39:49.008Z,3.00
2018-05-12T11:42:17.035Z,3.80
2018-05-12T11:44:44.696Z,4.50
2018-05-12T11:47:12.236Z,4.37
2018-05-12T11:49:39.871Z,5.57
2018-05-12T11:52:07.468Z,4.30
2018-05-12T11:54:35.072Z,3.70
2018-05-12T11:57:02.728Z,3.50
2018-05-12T11:59:30.302Z,3.73
2018-05-12T12:01:57.909Z,4.30
2018-05-12T12:04:25.529Z,4.20
2018-05-12T12:06:53.145Z,3.67
2018-05-12T12:09:20.718Z,3.47
2018-05-12T12:11:48.362Z,3.40
2018-05-12T12:14:15.918Z,3.43
2018-05-12T12:16:43.554Z,3.20
2018-05-12T12:19:11.274Z,3.15
2018-05-12T12:21:38.873Z,3.20
2018-05-12T12:24:06.491Z,3.53
2018-05-12T12:26:34.104Z,3.43
2018-05-12T12:29:01.669Z,3.43
2018-05-12T12:31:29.237Z,3.80
2018-05-12T12:33:56.844Z,3.70
2018-05-12T12:36:24.424Z,3.10
2018-05-12T12:38:52.057Z,3.17
2018-05-12T12:41:19.913Z,3.93
2018-05-12T12:43:47.484Z,3.20
2018-05-12T12:46:15.313Z,4.17
2018-05-12T12:48:42.963Z,3.50
2018-05-12T12:51:10.649Z,3.37
2018-05-12T12:53:39.244Z,3.70
2018-05-12T12:56:06.979Z,4.07
2018-05-12T12:58:34.570Z,4.00
2018-05-12T13:01:02.154Z,3.40
2018-05-12T13:03:29.801Z,3.03
2018-05-12T13:05:57.422Z,3.70
2018-05-12T13:08:25.033Z,3.20
2018-05-12T13:10:52.681Z,3.97
2018-05-12T13:13:20.278Z,3.30
2018-05-12T13:15:47.906Z,3.53
2018-05-12T13:18:15.537Z,3.70
2018-05-12T13:20:43.147Z,3.73
2018-05-12T13:23:10.732Z,3.80
2018-05-12T13:25:38.342Z,3.57
2018-05-12T13:28:05.940Z,3.53
2018-05-12T13:30:33.524Z,3.80
2018-05-12T13:33:01.233Z,3.40
2018-05-12T13:35:28.818Z,3.30
2018-05-12T13:37:56.436Z,4.60
2018-05-12T13:40:24.263Z,4.10
2018-05-12T13:42:51.896Z,4.00
2018-05-12T13:45:19.469Z,3.10
2018-05-12T13:47:47.100Z,3.43
2018-05-12T13:50:14.697Z,3.43
2018-05-12T13:52:42.275Z,3.17
2018-05-12T13:55:09.981Z,3.27
2018-05-12T13:57:37.592Z,3.90
2018-05-12T14:00:05.251Z,3.83
2018-05-12T14:02:32.879Z,4.00
2018-05-12T14:05:00.478Z,4.17
2018-05-12T14:07:28.070Z,4.03
2018-05-12T14:09:55.815Z,3.47
2018-05-12T14:12:23.386Z,3.47
2018-05-12T14:14:50.971Z,3.57
2018-05-12T14:17:18.769Z,3.47
2018-05-12T14:19:46.387Z,5.37
2018-05-12T14:22:13.980Z,3.40
2018-05-12T14:24:41.618Z,3.40
2018-05-12T14:27:11.956Z,3.77
2018-05-12T14:29:39.547Z,3.83
2018-05-12T14:32:07.303Z,3.87
2018-05-12T14:34:34.881Z,3.73
2018-05-12T14:37:02.472Z,6.70
2018-05-12T14:39:30.134Z,3.97
2018-05-12T14:41:57.738Z,3.03
2018-05-12T14:44:25.319Z,3.60
2018-05-12T14:46:52.972Z,3.77
2018-05-12T14:49:20.580Z,3.50
2018-05-12T14:51:48.187Z,4.30
2018-05-12T14:54:15.912Z,3.77
2018-05-12T14:56:43.547Z,3.63
2018-05-12T14:59:11.159Z,3.70
2018-05-12T15:01:38.795Z,3.77
2018-05-12T15:04:06.384Z,3.23
2018-05-12T15:06:33.985Z,3.90
2018-05-12T15:09:01.612Z,4.03
2018-05-12T15:11:29.223Z,3.90
2018-05-12T15:13:56.828Z,3.70
2018-05-12T15:16:24.580Z,4.03
2018-05-12T15:18:52.149Z,3.93
2018-05-12T15:21:19.751Z,3.97
2018-05-12T15:23:47.394Z,3.70
2018-05-12T15:26:15.004Z,3.80
2018-05-12T15:28:42.574Z,3.50
2018-05-12T15:31:10.194Z,3.70
2018-05-12T15:33:37.779Z,3.33
2018-05-12T15:36:05.392Z,3.83
2018-05-12T15:38:33.026Z,4.00
2018-05-12T15:41:00.611Z,3.70
2018-05-12T15:43:28.195Z,3.87
2018-05-12T15:45:55.836Z,3.67
2018-05-12T15:48:23.423Z,4.60
2018-05-12T15:50:51.031Z,6.40
2018-05-12T15:53:18.779Z,3.77
2018-05-12T15:55:46.368Z,3.60
2018-05-12T15:58:13.999Z,3.93
2018-05-12T16:00:41.775Z,3.67
2018-05-12T16:03:09.450Z,3.53
2018-05-12T16:05:36.995Z,4.30
2018-05-12T16:08:04.644Z,4.27
2018-05-12T16:10:32.229Z,4.07
2018-05-12T16:12:59.807Z,3.90
2018-05-12T16:15:27.454Z,3.67
2018-05-12T16:17:55.043Z,3.53
2018-05-12T16:20:22.670Z,4.47
2018-05-12T16:22:50.343Z,4.27
2018-05-12T16:25:17.967Z,4.90
2018-05-12T16:27:45.578Z,4.93
2018-05-12T16:30:13.475Z,4.00
2018-05-12T16:32:41.074Z,4.60
2018-05-12T16:35:08.684Z,3.90
2018-05-12T16:37:36.451Z,3.87
2018-05-12T16:40:04.123Z,4.30
2018-05-12T16:42:31.787Z,4.00
2018-05-12T16:44:59.516Z,4.10
2018-05-12T16:47:27.187Z,4.77
2018-05-12T16:49:54.788Z,4.97
2018-05-12T16:52:22.410Z,6.27
2018-05-12T16:54:49.994Z,6.50
2018-05-12T16:57:17.602Z,7.37
2018-05-12T16:59:45.350Z,7.37
2018-05-12T17:02:12.941Z,6.70
2018-05-12T17:04:40.530Z,6.80
2018-05-12T17:07:08.214Z,5.60
2018-05-12T17:09:35.830Z,6.60
2018-05-12T17:12:03.416Z,5.77
2018-05-12T17:14:31.208Z,7.03
2018-05-12T17:16:58.775Z,5.90
2018-05-12T17:19:26.339Z,4.67
2018-05-12T17:21:53.989Z,4.90
2018-05-12T17:24:21.721Z,4.87
2018-05-12T17:26:49.417Z,5.00
2018-05-12T17:29:17.103Z,5.20
2018-05-12T17:31:44.811Z,5.03
2018-05-12T17:34:12.546Z,5.30
2018-05-12T17:36:40.274Z,5.53
2018-05-12T17:39:07.881Z,5.20
2018-05-12T17:41:35.475Z,4.63
2018-05-12T17:44:03.160Z,4.93
2018-05-12T17:46:30.734Z,5.47
2018-05-12T17:48:58.334Z,4.87
2018-05-12T17:51:26.330Z,5.03
2018-05-12T17:53:53.899Z,5.70
2018-05-12T17:56:21.475Z,7.97
2018-05-12T17:58:49.129Z,17.93
2018-05-12T18:01:25.314Z,9.67
2018-05-12T18:03:52.965Z,5.77
2018-05-12T18:06:20.541Z,5.27
2018-05-12T18:08:48.143Z,4.50
2018-05-12T18:11:15.807Z,4.30
2018-05-12T18:13:43.416Z,4.30
2018-05-12T18:16:11.064Z,4.60
2018-05-12T18:18:38.817Z,4.57
2018-05-12T18:21:07.432Z,4.90
2018-05-12T18:23:35.026Z,4.67
2018-05-12T18:26:02.779Z,4.90
2018-05-12T18:28:30.377Z,4.50
2018-05-12T18:30:58.006Z,6.07
2018-05-12T18:33:25.658Z,4.30
2018-05-12T18:35:53.241Z,8.07
2018-05-12T18:38:20.860Z,4.50
2018-05-12T18:40:48.534Z,4.30
2018-05-12T18:43:16.176Z,3.77
2018-05-12T18:45:43.785Z,4.13
2018-05-12T18:48:11.555Z,4.03
2018-05-12T18:50:39.149Z,3.90
2018-05-12T18:53:06.803Z,3.87
2018-05-12T18:55:34.535Z,4.43
2018-05-12T18:58:02.270Z,3.77
2018-05-12T19:00:30.036Z,3.57
2018-05-12T19:02:58.404Z,4.53
2018-05-12T19:05:26.010Z,4.03
2018-05-12T19:07:53.610Z,3.80
2018-05-12T19:10:21.396Z,3.90
2018-05-12T19:12:48.984Z,4.70
2018-05-12T19:15:16.639Z,4.33
2018-05-12T19:17:44.282Z,5.57
2018-05-12T19:20:11.865Z,3.90
2018-05-12T19:22:39.526Z,3.47
2018-05-12T19:25:07.218Z,3.53
2018-05-12T19:27:34.976Z,3.77
2018-05-12T19:30:02.672Z,3.50
2018-05-12T19:32:30.535Z,3.60
2018-05-12T19:34:58.232Z,3.57
2018-05-12T19:37:25.958Z,3.50
2018-05-12T19:39:53.987Z,3.30
2018-05-12T19:42:21.959Z,3.03
2018-05-12T19:44:50.578Z,3.17
2018-05-12T19:47:18.557Z,3.50
2018-05-12T19:49:46.367Z,3.70
2018-05-12T19:52:14.189Z,3.60
2018-05-12T19:54:41.914Z,3.80
2018-05-12T19:57:09.567Z,3.60
2018-05-12T19:59:37.209Z,4.47
2018-05-12T20:02:04.915Z,3.90
2018-05-12T20:04:32.621Z,10.43
2018-05-12T20:07:00.563Z,5.33
2018-05-12T20:09:28.379Z,4.30
2018-05-12T20:11:56.188Z,3.50
2018-05-12T20:14:23.909Z,3.90
2018-05-12T20:16:51.719Z,6.63
2018-05-12T20:19:19.342Z,5.57
2018-05-12T20:21:47.028Z,25.43
2018-05-12T20:24:14.945Z,4.23
2018-05-12T20:26:43.770Z,3.50
2018-05-12T20:29:11.582Z,3.47
2018-05-12T20:31:39.488Z,5.27
2018-05-12T20:34:07.090Z,6.40
2018-05-12T20:36:34.707Z,13.93
2018-05-12T20:39:02.429Z,3.80
2018-05-12T20:41:30.570Z,3.90
2018-05-12T20:43:58.186Z,3.37
2018-05-12T20:46:26.046Z,3.47
2018-05-12T20:48:53.626Z,3.33
2018-05-12T20:51:21.195Z,4.37
2018-05-12T20:53:48.921Z,3.47
2018-05-12T20:56:16.492Z,4.00
2018-05-12T20:58:44.148Z,5.73
2018-05-12T21:01:11.853Z,3.50
2018-05-12T21:03:39.446Z,3.43
2018-05-12T21:06:07.071Z,3.70
2018-05-12T21:08:34.787Z,3.77
2018-05-12T21:11:02.367Z,4.03
2018-05-12T21:13:29.971Z,4.30
2018-05-12T21:15:57.660Z,4.90
2018-05-12T21:18:26.152Z,4.53
2018-05-12T21:20:53.788Z,3.47
2018-05-12T21:23:21.424Z,3.63
2018-05-12T21:25:48.998Z,3.80
2018-05-12T21:28:16.573Z,4.00
2018-05-12T21:30:44.264Z,3.87
2018-05-12T21:33:11.904Z,3.50
2018-05-12T21:35:39.545Z,3.50
2018-05-12T21:38:07.233Z,3.50
2018-05-12T21:40:34.808Z,3.77
2018-05-12T21:43:02.380Z,3.60
2018-05-12T21:45:30.010Z,3.83
2018-05-12T21:47:57.649Z,3.47
2018-05-12T21:50:25.584Z,3.93
2018-05-12T21:52:53.364Z,3.90
2018-05-12T21:55:20.947Z,3.73
2018-05-12T21:57:48.589Z,4.30
2018-05-12T22:00:16.292Z,3.70
2018-05-12T22:02:43.869Z,3.80
2018-05-12T22:05:11.463Z,3.60
2018-05-12T22:07:39.196Z,3.70
2018-05-12T22:10:06.775Z,3.47
2018-05-12T22:12:34.381Z,3.80
2018-05-12T22:15:02.109Z,3.17
2018-05-12T22:17:29.762Z,3.63
2018-05-12T22:19:57.339Z,3.70
2018-05-12T22:22:25.303Z,3.80
2018-05-12T22:24:52.948Z,3.80
2018-05-12T22:27:20.602Z,4.63
2018-05-12T22:29:48.243Z,4.30
2018-05-12T22:32:15.887Z,4.00
2018-05-12T22:34:43.452Z,4.00
2018-05-12T22:37:11.078Z,3.50
2018-05-12T22:39:38.681Z,4.23
2018-05-12T22:42:06.268Z,4.03
2018-05-12T22:44:33.992Z,4.27
2018-05-12T22:47:01.602Z,4.90
2018-05-12T22:49:29.246Z,4.60
2018-05-12T22:51:56.866Z,3.50
2018-05-12T22:54:24.443Z,3.53
2018-05-12T22:56:52.015Z,3.37
2018-05-12T22:59:19.641Z,3.40
2018-05-12T23:01:47.305Z,3.67
2018-05-12T23:04:14.889Z,3.70
2018-05-12T23:06:42.615Z,3.27
2018-05-12T23:09:10.241Z,3.80
2018-05-12T23:11:37.840Z,4.10
2018-05-12T23:14:05.542Z,4.50
2018-05-12T23:16:33.180Z,4.13
2018-05-12T23:19:00.810Z,3.80
2018-05-12T23:21:28.424Z,3.93
2018-05-12T23:23:56.057Z,4.13
2018-05-12T23:26:23.650Z,4.00
2018-05-12T23:28:51.403Z,3.80
2018-05-12T23:31:18.977Z,3.80
2018-05-12T23:33:46.560Z,3.77
2018-05-12T23:36:14.176Z,3.80
2018-05-12T23:38:41.768Z,4.00
2018-05-12T23:41:09.407Z,4.27
2018-05-12T23:43:37.029Z,3.90
2018-05-12T23:46:04.685Z,4.40
2018-05-12T23:48:32.263Z,4.23
2018-05-12T23:51:00.037Z,4.03
2018-05-12T23:53:27.621Z,4.30
2018-05-12T23:55:55.281Z,4.53
2018-05-12T23:58:23.178Z,4.23
